sensor_id;sensor_type;location;lat;lon;timestamp;temperature;humidity
1411;DHT22;700;51.906;8.404;2023-05-07T00:04:36;18.40;99.90
1411;DHT22;700;51.906;8.404;2023-05-07T00:09:41;18.10;99.90
1411;DHT22;700;51.906;8.404;2023-05-07T00:14:42;18.10;99.90
1411;DHT22;700;51.906;8.404;2023-05-07T00:19:45;18.10;99.90
1411;DHT22;700;51.906;8.404;2023-05-07T00:24:47;18.10;99.90
1411;DHT22;700;51.906;8.404;2023-05-07T00:29:50;18.00;99.90
1411;DHT22;700;51.906;8.404;2023-05-07T00:34:50;18.00;99.90
1411;DHT22;700;51.906;8.404;2023-05-07T00:39:53;18.00;99.90
1411;DHT22;700;51.906;8.404;2023-05-07T00:44:54;18.00;99.90
1411;DHT22;700;51.906;8.404;2023-05-07T00:49:57;17.90;99.90
1411;DHT22;700;51.906;8.404;2023-05-07T00:55:05;17.90;99.90
1411;DHT22;700;51.906;8.404;2023-05-07T01:00:09;18.00;99.90
1411;DHT22;700;51.906;8.404;2023-05-07T01:05:15;18.00;99.90
1411;DHT22;700;51.906;8.404;2023-05-07T01:10:17;18.00;99.90
1411;DHT22;700;51.906;8.404;2023-05-07T01:15:18;17.70;99.90
1411;DHT22;700;51.906;8.404;2023-05-07T01:20:19;17.70;99.90
1411;DHT22;700;51.906;8.404;2023-05-07T01:25:22;17.90;99.90
1411;DHT22;700;51.906;8.404;2023-05-07T01:30:26;17.80;99.90
1411;DHT22;700;51.906;8.404;2023-05-07T01:35:34;17.60;99.90
1411;DHT22;700;51.906;8.404;2023-05-07T01:40:41;17.50;99.90
1411;DHT22;700;51.906;8.404;2023-05-07T01:45:42;17.70;99.90
1411;DHT22;700;51.906;8.404;2023-05-07T01:50:44;17.80;99.90
1411;DHT22;700;51.906;8.404;2023-05-07T01:55:47;17.80;99.90
1411;DHT22;700;51.906;8.404;2023-05-07T02:00:48;17.80;99.90
1411;DHT22;700;51.906;8.404;2023-05-07T02:05:51;17.90;99.90
1411;DHT22;700;51.906;8.404;2023-05-07T02:10:51;17.70;99.90
1411;DHT22;700;51.906;8.404;2023-05-07T02:15:52;17.70;99.90
1411;DHT22;700;51.906;8.404;2023-05-07T02:20:53;17.70;99.90
1411;DHT22;700;51.906;8.404;2023-05-07T02:25:56;17.40;99.90
1411;DHT22;700;51.906;8.404;2023-05-07T02:30:57;17.30;99.90
1411;DHT22;700;51.906;8.404;2023-05-07T02:36:09;17.10;99.90
1411;DHT22;700;51.906;8.404;2023-05-07T02:41:10;17.00;99.90
1411;DHT22;700;51.906;8.404;2023-05-07T02:46:13;16.90;99.90
1411;DHT22;700;51.906;8.404;2023-05-07T02:51:19;17.10;99.90
1411;DHT22;700;51.906;8.404;2023-05-07T02:56:20;17.00;99.90
1411;DHT22;700;51.906;8.404;2023-05-07T03:01:24;16.80;99.90
1411;DHT22;700;51.906;8.404;2023-05-07T03:06:25;16.90;99.90
1411;DHT22;700;51.906;8.404;2023-05-07T03:11:26;16.60;99.90
1411;DHT22;700;51.906;8.404;2023-05-07T03:16:29;16.80;99.90
1411;DHT22;700;51.906;8.404;2023-05-07T03:21:33;16.80;99.90
1411;DHT22;700;51.906;8.404;2023-05-07T03:26:37;16.80;99.90
1411;DHT22;700;51.906;8.404;2023-05-07T03:31:40;17.00;99.90
1411;DHT22;700;51.906;8.404;2023-05-07T03:36:45;17.10;99.90
1411;DHT22;700;51.906;8.404;2023-05-07T03:41:50;16.90;99.90
1411;DHT22;700;51.906;8.404;2023-05-07T03:46:51;17.00;99.90
1411;DHT22;700;51.906;8.404;2023-05-07T03:51:51;16.90;99.90
1411;DHT22;700;51.906;8.404;2023-05-07T03:56:52;16.70;99.90
1411;DHT22;700;51.906;8.404;2023-05-07T04:01:52;16.70;99.90
1411;DHT22;700;51.906;8.404;2023-05-07T04:06:53;16.80;99.90
1411;DHT22;700;51.906;8.404;2023-05-07T04:11:54;16.90;99.90
1411;DHT22;700;51.906;8.404;2023-05-07T04:16:54;16.90;99.90
1411;DHT22;700;51.906;8.404;2023-05-07T04:21:57;17.00;99.90
1411;DHT22;700;51.906;8.404;2023-05-07T04:26:58;17.00;99.90
1411;DHT22;700;51.906;8.404;2023-05-07T04:32:01;17.00;99.90
1411;DHT22;700;51.906;8.404;2023-05-07T04:37:02;17.00;99.90
1411;DHT22;700;51.906;8.404;2023-05-07T04:42:05;16.90;99.90
1411;DHT22;700;51.906;8.404;2023-05-07T04:47:11;16.70;99.90
1411;DHT22;700;51.906;8.404;2023-05-07T04:52:12;16.50;99.90
1411;DHT22;700;51.906;8.404;2023-05-07T04:57:12;16.10;99.90
1411;DHT22;700;51.906;8.404;2023-05-07T05:02:17;16.50;99.90
1411;DHT22;700;51.906;8.404;2023-05-07T05:07:20;16.60;99.90
1411;DHT22;700;51.906;8.404;2023-05-07T05:12:23;16.90;99.90
1411;DHT22;700;51.906;8.404;2023-05-07T05:17:23;16.90;99.90
1411;DHT22;700;51.906;8.404;2023-05-07T05:22:26;16.70;99.90
1411;DHT22;700;51.906;8.404;2023-05-07T05:27:30;16.90;99.90
1411;DHT22;700;51.906;8.404;2023-05-07T05:32:30;17.00;99.90
1411;DHT22;700;51.906;8.404;2023-05-07T05:37:33;17.00;99.90
1411;DHT22;700;51.906;8.404;2023-05-07T05:42:34;16.70;99.90
1411;DHT22;700;51.906;8.404;2023-05-07T05:47:37;17.10;99.90
1411;DHT22;700;51.906;8.404;2023-05-07T05:52:41;17.00;99.90
1411;DHT22;700;51.906;8.404;2023-05-07T05:57:44;16.90;99.90
1411;DHT22;700;51.906;8.404;2023-05-07T06:02:45;17.20;99.90
1411;DHT22;700;51.906;8.404;2023-05-07T06:07:46;17.30;99.90
1411;DHT22;700;51.906;8.404;2023-05-07T06:12:47;17.30;99.90
1411;DHT22;700;51.906;8.404;2023-05-07T06:17:47;17.30;99.90
1411;DHT22;700;51.906;8.404;2023-05-07T06:22:49;17.60;99.90
1411;DHT22;700;51.906;8.404;2023-05-07T06:27:50;17.50;99.90
1411;DHT22;700;51.906;8.404;2023-05-07T06:32:50;16.90;99.90
1411;DHT22;700;51.906;8.404;2023-05-07T06:37:56;17.20;99.90
1411;DHT22;700;51.906;8.404;2023-05-07T06:42:56;17.20;99.90
1411;DHT22;700;51.906;8.404;2023-05-07T06:47:57;17.20;99.90
1411;DHT22;700;51.906;8.404;2023-05-07T06:53:00;17.40;99.90
1411;DHT22;700;51.906;8.404;2023-05-07T06:58:00;17.40;99.90
1411;DHT22;700;51.906;8.404;2023-05-07T07:03:01;17.20;99.90
1411;DHT22;700;51.906;8.404;2023-05-07T07:08:01;17.70;99.90
1411;DHT22;700;51.906;8.404;2023-05-07T07:13:02;17.70;99.90
1411;DHT22;700;51.906;8.404;2023-05-07T07:18:03;18.10;99.90
1411;DHT22;700;51.906;8.404;2023-05-07T07:23:06;18.40;99.90
1411;DHT22;700;51.906;8.404;2023-05-07T07:28:06;17.90;99.90
1411;DHT22;700;51.906;8.404;2023-05-07T07:33:10;18.10;99.90
1411;DHT22;700;51.906;8.404;2023-05-07T07:38:10;18.30;99.90
1411;DHT22;700;51.906;8.404;2023-05-07T07:43:13;18.90;99.90
1411;DHT22;700;51.906;8.404;2023-05-07T07:48:14;19.20;99.90
1411;DHT22;700;51.906;8.404;2023-05-07T07:53:14;18.80;99.90
1411;DHT22;700;51.906;8.404;2023-05-07T07:58:15;19.10;99.90
1411;DHT22;700;51.906;8.404;2023-05-07T08:03:16;19.00;99.90
1411;DHT22;700;51.906;8.404;2023-05-07T08:08:19;19.00;99.90
1411;DHT22;700;51.906;8.404;2023-05-07T08:13:24;19.20;99.90
1411;DHT22;700;51.906;8.404;2023-05-07T08:18:25;19.60;99.90
1411;DHT22;700;51.906;8.404;2023-05-07T08:23:26;20.30;99.90
1411;DHT22;700;51.906;8.404;2023-05-07T08:28:27;20.50;99.90
1411;DHT22;700;51.906;8.404;2023-05-07T08:33:27;20.90;99.90
1411;DHT22;700;51.906;8.404;2023-05-07T08:38:28;21.10;99.90
1411;DHT22;700;51.906;8.404;2023-05-07T08:43:30;21.20;99.90
1411;DHT22;700;51.906;8.404;2023-05-07T08:48:34;20.80;99.90
1411;DHT22;700;51.906;8.404;2023-05-07T08:53:43;21.20;99.90
1411;DHT22;700;51.906;8.404;2023-05-07T08:58:45;20.80;99.90
1411;DHT22;700;51.906;8.404;2023-05-07T09:03:51;20.60;99.90
1411;DHT22;700;51.906;8.404;2023-05-07T09:08:54;21.30;99.90
1411;DHT22;700;51.906;8.404;2023-05-07T09:13:55;22.00;99.90
1411;DHT22;700;51.906;8.404;2023-05-07T09:19:00;22.30;99.90
1411;DHT22;700;51.906;8.404;2023-05-07T09:24:03;22.10;99.90
1411;DHT22;700;51.906;8.404;2023-05-07T09:29:04;21.90;99.90
1411;DHT22;700;51.906;8.404;2023-05-07T09:34:05;24.40;99.90
1411;DHT22;700;51.906;8.404;2023-05-07T09:39:06;26.60;99.90
1411;DHT22;700;51.906;8.404;2023-05-07T09:44:06;27.00;98.70
1411;DHT22;700;51.906;8.404;2023-05-07T09:49:07;26.80;96.80
1411;DHT22;700;51.906;8.404;2023-05-07T09:54:17;26.70;94.70
1411;DHT22;700;51.906;8.404;2023-05-07T09:59:21;26.10;97.00
1411;DHT22;700;51.906;8.404;2023-05-07T10:04:25;29.10;92.40
1411;DHT22;700;51.906;8.404;2023-05-07T10:09:26;31.30;81.60
1411;DHT22;700;51.906;8.404;2023-05-07T10:14:28;29.70;76.90
1411;DHT22;700;51.906;8.404;2023-05-07T10:19:31;30.50;76.00
1411;DHT22;700;51.906;8.404;2023-05-07T10:24:34;30.70;69.00
1411;DHT22;700;51.906;8.404;2023-05-07T10:34:47;29.40;71.40
1411;DHT22;700;51.906;8.404;2023-05-07T10:39:51;29.70;71.70
1411;DHT22;700;51.906;8.404;2023-05-07T10:44:52;29.80;72.50
1411;DHT22;700;51.906;8.404;2023-05-07T11:05:27;34.80;54.70
1411;DHT22;700;51.906;8.404;2023-05-07T11:15:55;33.50;53.60
1411;DHT22;700;51.906;8.404;2023-05-07T11:20:57;34.10;53.00
1411;DHT22;700;51.906;8.404;2023-05-07T11:26:08;35.80;51.40
1411;DHT22;700;51.906;8.404;2023-05-07T11:31:14;35.20;48.40
1411;DHT22;700;51.906;8.404;2023-05-07T11:36:23;34.20;49.70
1411;DHT22;700;51.906;8.404;2023-05-07T11:41:33;35.90;47.90
1411;DHT22;700;51.906;8.404;2023-05-07T11:46:35;36.90;47.20
1411;DHT22;700;51.906;8.404;2023-05-07T11:51:36;39.70;43.70
1411;DHT22;700;51.906;8.404;2023-05-07T11:56:37;41.30;38.90
1411;DHT22;700;51.906;8.404;2023-05-07T12:01:38;40.40;37.50
1411;DHT22;700;51.906;8.404;2023-05-07T12:06:41;37.90;39.40
1411;DHT22;700;51.906;8.404;2023-05-07T12:11:45;36.90;42.10
1411;DHT22;700;51.906;8.404;2023-05-07T12:16:46;36.30;41.90
1411;DHT22;700;51.906;8.404;2023-05-07T12:21:48;34.70;43.60
1411;DHT22;700;51.906;8.404;2023-05-07T12:26:51;33.20;47.30
1411;DHT22;700;51.906;8.404;2023-05-07T12:31:55;36.10;44.50
1411;DHT22;700;51.906;8.404;2023-05-07T12:36:55;35.40;42.50
1411;DHT22;700;51.906;8.404;2023-05-07T12:41:58;34.90;46.50
1411;DHT22;700;51.906;8.404;2023-05-07T12:47:02;35.40;45.10
1411;DHT22;700;51.906;8.404;2023-05-07T12:52:03;33.50;46.40
1411;DHT22;700;51.906;8.404;2023-05-07T12:57:08;35.00;45.00
1411;DHT22;700;51.906;8.404;2023-05-07T13:02:09;33.40;46.00
1411;DHT22;700;51.906;8.404;2023-05-07T13:07:09;32.10;48.30
1411;DHT22;700;51.906;8.404;2023-05-07T13:12:10;32.20;48.60
1411;DHT22;700;51.906;8.404;2023-05-07T13:17:10;31.50;51.60
1411;DHT22;700;51.906;8.404;2023-05-07T13:22:11;34.10;48.90
1411;DHT22;700;51.906;8.404;2023-05-07T13:27:12;35.60;46.00
1411;DHT22;700;51.906;8.404;2023-05-07T13:32:12;35.90;46.20
1411;DHT22;700;51.906;8.404;2023-05-07T13:37:13;36.90;44.40
1411;DHT22;700;51.906;8.404;2023-05-07T13:42:16;36.50;42.80
1411;DHT22;700;51.906;8.404;2023-05-07T13:47:16;34.10;45.60
1411;DHT22;700;51.906;8.404;2023-05-07T13:52:19;33.00;47.60
1411;DHT22;700;51.906;8.404;2023-05-07T13:57:23;31.50;50.90
1411;DHT22;700;51.906;8.404;2023-05-07T14:02:26;30.90;50.60
1411;DHT22;700;51.906;8.404;2023-05-07T14:07:26;30.80;51.60
1411;DHT22;700;51.906;8.404;2023-05-07T14:12:27;30.20;52.90
1411;DHT22;700;51.906;8.404;2023-05-07T14:17:28;29.70;54.50
1411;DHT22;700;51.906;8.404;2023-05-07T14:22:31;28.60;55.60
1411;DHT22;700;51.906;8.404;2023-05-07T14:27:38;28.00;57.10
1411;DHT22;700;51.906;8.404;2023-05-07T14:32:39;27.20;59.10
1411;DHT22;700;51.906;8.404;2023-05-07T14:37:42;26.00;59.50
1411;DHT22;700;51.906;8.404;2023-05-07T14:42:43;25.80;62.80
1411;DHT22;700;51.906;8.404;2023-05-07T14:47:45;25.20;67.10
1411;DHT22;700;51.906;8.404;2023-05-07T14:52:46;25.10;67.40
1411;DHT22;700;51.906;8.404;2023-05-07T14:57:49;25.30;68.20
1411;DHT22;700;51.906;8.404;2023-05-07T15:02:52;24.60;69.10
1411;DHT22;700;51.906;8.404;2023-05-07T15:07:53;24.60;70.60
1411;DHT22;700;51.906;8.404;2023-05-07T15:12:56;23.90;71.70
1411;DHT22;700;51.906;8.404;2023-05-07T15:17:57;24.10;76.70
1411;DHT22;700;51.906;8.404;2023-05-07T15:23:02;24.10;77.10
1411;DHT22;700;51.906;8.404;2023-05-07T15:28:07;23.80;77.80
1411;DHT22;700;51.906;8.404;2023-05-07T15:33:11;23.80;80.10
1411;DHT22;700;51.906;8.404;2023-05-07T15:38:11;23.50;84.00
1411;DHT22;700;51.906;8.404;2023-05-07T15:43:17;23.60;83.90
1411;DHT22;700;51.906;8.404;2023-05-07T15:48:20;23.50;85.30
1411;DHT22;700;51.906;8.404;2023-05-07T15:53:22;23.80;84.70
1411;DHT22;700;51.906;8.404;2023-05-07T15:58:23;23.40;86.70
1411;DHT22;700;51.906;8.404;2023-05-07T16:03:24;23.60;88.40
1411;DHT22;700;51.906;8.404;2023-05-07T16:08:28;23.30;89.90
1411;DHT22;700;51.906;8.404;2023-05-07T16:13:29;23.70;90.70
1411;DHT22;700;51.906;8.404;2023-05-07T16:18:30;23.30;90.40
1411;DHT22;700;51.906;8.404;2023-05-07T16:23:30;22.90;91.60
1411;DHT22;700;51.906;8.404;2023-05-07T16:28:33;23.00;93.10
1411;DHT22;700;51.906;8.404;2023-05-07T16:33:36;22.80;92.90
1411;DHT22;700;51.906;8.404;2023-05-07T16:38:43;22.60;93.80
1411;DHT22;700;51.906;8.404;2023-05-07T16:43:46;22.70;93.70
1411;DHT22;700;51.906;8.404;2023-05-07T16:48:49;22.60;94.10
1411;DHT22;700;51.906;8.404;2023-05-07T16:53:50;22.50;94.60
1411;DHT22;700;51.906;8.404;2023-05-07T16:58:53;22.40;95.70
1411;DHT22;700;51.906;8.404;2023-05-07T17:03:54;22.30;95.50
1411;DHT22;700;51.906;8.404;2023-05-07T17:08:57;22.20;96.30
1411;DHT22;700;51.906;8.404;2023-05-07T17:14:00;22.00;97.00
1411;DHT22;700;51.906;8.404;2023-05-07T17:19:01;22.10;98.20
1411;DHT22;700;51.906;8.404;2023-05-07T17:24:01;22.20;98.70
1411;DHT22;700;51.906;8.404;2023-05-07T17:29:02;22.20;99.10
1411;DHT22;700;51.906;8.404;2023-05-07T17:34:03;22.10;98.70
1411;DHT22;700;51.906;8.404;2023-05-07T17:39:04;22.00;99.20
1411;DHT22;700;51.906;8.404;2023-05-07T17:44:04;21.70;99.50
1411;DHT22;700;51.906;8.404;2023-05-07T17:49:05;21.30;99.90
1411;DHT22;700;51.906;8.404;2023-05-07T17:54:06;21.10;99.90
1411;DHT22;700;51.906;8.404;2023-05-07T17:59:06;20.90;99.90
1411;DHT22;700;51.906;8.404;2023-05-07T18:04:09;20.80;99.90
1411;DHT22;700;51.906;8.404;2023-05-07T18:09:10;20.50;99.90
1411;DHT22;700;51.906;8.404;2023-05-07T18:14:13;20.40;99.90
1411;DHT22;700;51.906;8.404;2023-05-07T18:19:16;20.40;99.90
1411;DHT22;700;51.906;8.404;2023-05-07T18:24:17;20.20;99.90
1411;DHT22;700;51.906;8.404;2023-05-07T18:29:20;20.10;99.90
1411;DHT22;700;51.906;8.404;2023-05-07T18:34:22;20.10;99.90
1411;DHT22;700;51.906;8.404;2023-05-07T18:39:23;19.80;99.90
1411;DHT22;700;51.906;8.404;2023-05-07T18:44:24;19.50;99.90
1411;DHT22;700;51.906;8.404;2023-05-07T18:49:24;19.60;99.90
1411;DHT22;700;51.906;8.404;2023-05-07T18:54:25;19.50;99.90
1411;DHT22;700;51.906;8.404;2023-05-07T18:59:26;19.40;99.90
1411;DHT22;700;51.906;8.404;2023-05-07T19:04:27;19.30;99.90
1411;DHT22;700;51.906;8.404;2023-05-07T19:09:31;19.00;99.90
1411;DHT22;700;51.906;8.404;2023-05-07T19:14:34;18.80;99.90
1411;DHT22;700;51.906;8.404;2023-05-07T19:19:35;18.40;99.90
1411;DHT22;700;51.906;8.404;2023-05-07T19:24:38;18.30;99.90
1411;DHT22;700;51.906;8.404;2023-05-07T19:29:42;18.40;99.90
1411;DHT22;700;51.906;8.404;2023-05-07T19:34:45;18.50;99.90
1411;DHT22;700;51.906;8.404;2023-05-07T19:39:45;18.30;99.90
1411;DHT22;700;51.906;8.404;2023-05-07T19:44:46;18.30;99.90
1411;DHT22;700;51.906;8.404;2023-05-07T19:49:49;18.10;99.90
1411;DHT22;700;51.906;8.404;2023-05-07T19:54:50;18.00;99.90
1411;DHT22;700;51.906;8.404;2023-05-07T19:59:52;18.00;99.90
1411;DHT22;700;51.906;8.404;2023-05-07T20:04:53;18.00;99.90
1411;DHT22;700;51.906;8.404;2023-05-07T20:09:54;18.00;99.90
1411;DHT22;700;51.906;8.404;2023-05-07T20:14:55;18.10;99.90
1411;DHT22;700;51.906;8.404;2023-05-07T20:19:55;18.00;99.90
1411;DHT22;700;51.906;8.404;2023-05-07T20:24:58;17.70;99.90
1411;DHT22;700;51.906;8.404;2023-05-07T20:30:01;17.50;99.90
1411;DHT22;700;51.906;8.404;2023-05-07T20:35:05;17.40;99.90
1411;DHT22;700;51.906;8.404;2023-05-07T20:40:06;17.40;99.90
1411;DHT22;700;51.906;8.404;2023-05-07T20:45:10;17.10;99.90
1411;DHT22;700;51.906;8.404;2023-05-07T20:50:13;16.90;99.90
1411;DHT22;700;51.906;8.404;2023-05-07T20:55:13;17.00;99.90
1411;DHT22;700;51.906;8.404;2023-05-07T21:00:15;16.90;99.90
1411;DHT22;700;51.906;8.404;2023-05-07T21:05:16;16.70;99.90
1411;DHT22;700;51.906;8.404;2023-05-07T21:10:17;16.80;99.90
1411;DHT22;700;51.906;8.404;2023-05-07T21:15:20;16.90;99.90
1411;DHT22;700;51.906;8.404;2023-05-07T21:20:20;16.80;99.90
1411;DHT22;700;51.906;8.404;2023-05-07T21:25:21;16.80;99.90
1411;DHT22;700;51.906;8.404;2023-05-07T21:30:22;16.20;99.90
1411;DHT22;700;51.906;8.404;2023-05-07T21:35:23;16.10;99.90
1411;DHT22;700;51.906;8.404;2023-05-07T21:40:25;15.90;99.90
1411;DHT22;700;51.906;8.404;2023-05-07T21:45:26;15.90;99.90
1411;DHT22;700;51.906;8.404;2023-05-07T21:50:27;15.80;99.90
1411;DHT22;700;51.906;8.404;2023-05-07T21:55:27;15.80;99.90
1411;DHT22;700;51.906;8.404;2023-05-07T22:00:28;15.90;99.90
1411;DHT22;700;51.906;8.404;2023-05-07T22:05:31;15.80;99.90
1411;DHT22;700;51.906;8.404;2023-05-07T22:10:32;15.80;99.90
1411;DHT22;700;51.906;8.404;2023-05-07T22:15:35;15.60;99.90
1411;DHT22;700;51.906;8.404;2023-05-07T22:20:35;15.60;99.90
1411;DHT22;700;51.906;8.404;2023-05-07T22:25:36;15.50;99.90
1411;DHT22;700;51.906;8.404;2023-05-07T22:30:39;15.50;99.90
1411;DHT22;700;51.906;8.404;2023-05-07T22:35:40;15.20;99.90
1411;DHT22;700;51.906;8.404;2023-05-07T22:40:40;15.40;99.90
1411;DHT22;700;51.906;8.404;2023-05-07T22:45:43;15.30;99.90
1411;DHT22;700;51.906;8.404;2023-05-07T22:50:43;15.20;99.90
1411;DHT22;700;51.906;8.404;2023-05-07T22:55:44;15.20;99.90
1411;DHT22;700;51.906;8.404;2023-05-07T23:00:45;15.10;99.90
1411;DHT22;700;51.906;8.404;2023-05-07T23:05:51;14.80;99.90
1411;DHT22;700;51.906;8.404;2023-05-07T23:10:54;14.60;99.90
1411;DHT22;700;51.906;8.404;2023-05-07T23:15:54;14.90;99.90
1411;DHT22;700;51.906;8.404;2023-05-07T23:20:57;14.70;99.90
1411;DHT22;700;51.906;8.404;2023-05-07T23:25:58;14.70;99.90
1411;DHT22;700;51.906;8.404;2023-05-07T23:31:01;14.60;99.90
1411;DHT22;700;51.906;8.404;2023-05-07T23:36:04;14.80;99.90
1411;DHT22;700;51.906;8.404;2023-05-07T23:41:05;14.80;99.90
1411;DHT22;700;51.906;8.404;2023-05-07T23:46:05;14.70;99.90
1411;DHT22;700;51.906;8.404;2023-05-07T23:51:09;14.50;99.90
1411;DHT22;700;51.906;8.404;2023-05-07T23:56:11;14.60;99.90
